Jacob Lake, Arizona
Current Conditions -  °F | °C
As of 1:35 AM on Tuesday 27 Jan 2015 (Local Time) from KAZC Reporting Station
Overcast Overcast  
Wind Chill: 46°   Ceiling: 8000
Heat Index: 48°   Visibility: 10mi
Dew Point: 29°   Wind: 5mph
Humidity: 49%   Direction: 130°SE
Pressure: 30.26"   Gusts: NA
Location:  36.9484°N, 112.529°W
Report Text: KAZC 270835Z AUTO 13004KT 10SM OVC080 09/M02 A3026 RMK AO2 T00871016
Loading
Personal Weather Stations






























Interactive Weather Map New forecast layout! Learn more

10-Day Weather Forecast

Advertisements
Track Severe Weather on mobile